Time;durP1;ratioP1;P1;durP2;ratioP2;P2;SDS_P1;SDS_P2;PMS_P1;PMS_P2;Temp;Humidity;BMP_temperature;BMP_pressure;BME280_temperature;BME280_humidity;BME280_pressure;Samples;Min_cycle;Max_cycle;Signal;HPM_P1;HPM_P2
2022/08/30 00:02:52;;;;;;;9.60;6.10;;;;;;;15.73;77.88;100647.44;89256;1263;85967;-60
2022/08/30 00:05:02;;;;;;;9.40;6.40;;;;;;;15.68;77.93;100650.78;89218;1262;94068;-60
2022/08/30 00:07:20;;;;;;;8.60;5.40;;;;;;;15.69;77.95;100652.46;89006;1265;81298;-61
2022/08/30 00:09:31;;;;;;;7.90;5.40;;;;;;;15.66;77.86;100651.27;89272;1262;80419;-61
2022/08/30 00:11:45;;;;;;;14.80;6.40;;;;;;;15.62;78.03;100651.45;89202;1262;99359;-62
2022/08/30 00:14:01;;;;;;;9.60;6.90;;;;;;;15.62;78.10;100650.73;89216;1263;88122;-60
2022/08/30 00:16:13;;;;;;;7.90;6.30;;;;;;;15.58;78.08;100648.65;89257;1263;93634;-62
2022/08/30 00:18:24;;;;;;;8.30;6.50;;;;;;;15.56;78.10;100652.27;89235;1262;82433;-60
2022/08/30 00:20:36;;;;;;;8.00;6.20;;;;;;;15.56;78.13;100653.81;89266;1262;81821;-61
2022/08/30 00:23:02;;;;;;;7.10;5.70;;;;;;;15.53;78.15;100652.14;89260;1263;98098;-60
2022/08/30 00:25:15;;;;;;;7.00;5.80;;;;;;;15.49;78.15;100652.41;89237;1263;86763;-60
2022/08/30 00:27:30;;;;;;;7.40;6.40;;;;;;;15.45;78.26;100652.02;89224;1263;94297;-60
2022/08/30 00:29:44;;;;;;;10.30;6.00;;;;;;;15.43;78.18;100655.80;89280;1263;82324;-60
2022/08/30 00:31:52;;;;;;;;;;;;;;;15.38;78.22;100653.13;89193;1263;82364;-60
2022/08/30 00:34:06;;;;;;;8.10;6.10;;;;;;;15.37;78.37;100653.55;89228;1262;99331;-60
2022/08/30 00:36:18;;;;;;;7.30;6.30;;;;;;;15.39;78.34;100652.88;89224;1262;87459;-60
2022/08/30 00:38:28;;;;;;;10.00;6.60;;;;;;;15.37;78.44;100655.56;89022;1266;95358;-59
2022/08/30 00:40:40;;;;;;;8.60;6.60;;;;;;;15.36;78.48;100654.94;89207;1263;81420;-59
2022/08/30 00:42:52;;;;;;;9.00;7.10;;;;;;;15.38;78.49;100652.50;89233;1263;81969;-59
2022/08/30 00:45:09;;;;;;;8.40;6.00;;;;;;;15.35;78.49;100653.32;89254;1262;97035;-60
2022/08/30 00:47:26;;;;;;;7.70;6.40;;;;;;;15.35;78.41;100653.81;89241;1263;87795;-60
2022/08/30 00:49:41;;;;;;;10.20;7.40;;;;;;;15.32;78.36;100653.65;89039;1264;96476;-60
2022/08/30 00:51:54;;;;;;;8.30;6.40;;;;;;;15.26;78.41;100651.08;89226;1263;80162;-60
2022/08/30 00:54:16;;;;;;;9.30;6.40;;;;;;;15.21;78.50;100652.13;89194;1262;82575;-61
2022/08/30 00:56:34;;;;;;;11.90;6.90;;;;;;;15.17;78.65;100651.85;89115;1263;99062;-60
2022/08/30 00:58:54;;;;;;;8.90;6.30;;;;;;;15.17;78.70;100653.09;89233;1263;87132;-61
2022/08/30 01:01:05;;;;;;;9.00;6.40;;;;;;;15.18;78.70;100654.23;89238;1263;95114;-60
2022/08/30 01:03:18;;;;;;;7.20;6.00;;;;;;;15.20;78.77;100651.16;89076;1263;81899;-61
2022/08/30 01:05:38;;;;;;;9.00;6.10;;;;;;;15.20;78.90;100654.23;89253;1261;82372;-60
2022/08/30 01:07:54;;;;;;;8.30;6.30;;;;;;;15.16;78.89;100648.29;89275;1263;98313;-61
2022/08/30 01:10:08;;;;;;;8.90;6.80;;;;;;;15.09;78.93;100650.73;89216;1263;88439;-60
2022/08/30 01:12:37;;;;;;;9.60;6.00;;;;;;;15.06;78.92;100652.20;89199;1262;94173;-60
2022/08/30 01:14:50;;;;;;;8.40;7.40;;;;;;;15.05;79.10;100649.02;89105;1263;79637;-60
2022/08/30 01:17:08;;;;;;;10.50;6.70;;;;;;;15.03;79.04;100650.36;89220;1263;81949;-59
2022/08/30 01:19:31;;;;;;;7.00;5.80;;;;;;;14.99;79.12;100656.32;89199;1263;99526;-60
2022/08/30 01:21:55;;;;;;;7.20;6.50;;;;;;;14.96;79.12;100656.79;89219;1263;86495;-60
2022/08/30 01:24:09;;;;;;;7.70;6.50;;;;;;;14.95;79.25;100656.02;89264;1263;94700;-61
2022/08/30 01:26:22;;;;;;;8.00;6.30;;;;;;;14.96;79.38;100658.63;89218;1259;82078;-60
2022/08/30 01:28:35;;;;;;;9.20;6.60;;;;;;;14.95;79.35;100656.61;89219;1263;83002;-60
2022/08/30 01:30:49;;;;;;;10.20;6.60;;;;;;;14.92;79.40;100654.57;89215;1261;97925;-60
2022/08/30 01:33:06;;;;;;;17.40;7.00;;;;;;;14.91;79.42;100654.58;89250;1263;86866;-59
2022/08/30 01:35:19;;;;;;;13.70;6.60;;;;;;;14.90;79.55;100654.15;89206;1259;94869;-59
2022/08/30 01:37:36;;;;;;;11.20;6.80;;;;;;;14.89;79.54;100656.14;89183;1263;82188;-60
2022/08/30 01:39:55;;;;;;;7.20;6.10;;;;;;;14.87;79.60;100654.74;89212;1262;83045;-61
2022/08/30 01:42:07;;;;;;;9.50;7.10;;;;;;;14.83;79.66;100653.16;89215;1262;99827;-60
2022/08/30 01:44:20;;;;;;;8.60;6.60;;;;;;;14.80;79.74;100657.05;89220;1262;88679;-60
2022/08/30 01:46:36;;;;;;;8.20;6.60;;;;;;;14.76;79.81;100659.19;89199;1263;95403;-61
2022/08/30 01:48:48;;;;;;;9.70;6.60;;;;;;;14.77;79.77;100659.40;89239;1263;81119;-61
2022/08/30 01:51:01;;;;;;;8.40;6.40;;;;;;;14.77;79.85;100658.05;89235;1263;81982;-60
2022/08/30 01:53:13;;;;;;;7.40;6.40;;;;;;;14.76;79.86;100663.13;88996;1266;99494;-60
2022/08/30 01:55:26;;;;;;;7.20;6.30;;;;;;;14.72;79.97;100660.79;89242;1263;87420;-61
2022/08/30 01:57:41;;;;;;;8.50;6.70;;;;;;;14.68;80.14;100663.70;89173;1263;94048;-60
2022/08/30 01:59:56;;;;;;;9.00;6.70;;;;;;;14.65;80.11;100660.41;89015;1264;80253;-61
2022/08/30 02:02:18;;;;;;;7.80;6.70;;;;;;;14.67;80.25;100658.45;89216;1262;80253;-61
2022/08/30 02:04:35;;;;;;;8.10;7.10;;;;;;;14.66;80.22;100654.89;89207;1263;98047;-61
2022/08/30 02:06:52;;;;;;;7.60;6.40;;;;;;;14.62;80.31;100656.85;89264;1263;86641;-59
2022/08/30 02:09:24;;;;;;;8.30;6.90;;;;;;;14.60;80.54;100656.86;89199;1264;94658;-61
2022/08/30 02:11:33;;;;;;;9.30;7.20;;;;;;;14.62;80.48;100652.70;89211;1263;80194;-60
2022/08/30 02:13:47;;;;;;;8.10;6.90;;;;;;;14.60;80.60;100652.91;89206;1263;80312;-59
2022/08/30 02:15:59;;;;;;;9.30;6.70;;;;;;;14.60;80.51;100655.60;89166;1263;99264;-59
2022/08/30 02:18:16;;;;;;;7.70;6.80;;;;;;;14.60;80.51;100655.52;89194;1263;87177;-60
2022/08/30 02:20:30;;;;;;;8.30;6.60;;;;;;;14.60;80.58;100656.98;89194;1262;92714;-61
2022/08/30 02:22:41;;;;;;;8.20;7.10;;;;;;;14.56;80.57;100655.97;89254;1263;80125;-60
2022/08/30 02:24:55;;;;;;;10.40;7.40;;;;;;;14.54;80.65;100658.19;89249;1263;80014;-61
2022/08/30 02:27:07;;;;;;;8.60;6.10;;;;;;;14.51;80.64;100658.10;88994;1264;99247;-60
2022/08/30 02:29:20;;;;;;;8.40;6.40;;;;;;;14.48;80.67;100657.85;89243;1263;88147;-60
2022/08/30 02:31:34;;;;;;;12.00;7.50;;;;;;;14.43;80.68;100657.30;89163;1263;93172;-60
2022/08/30 02:33:49;;;;;;;8.80;7.00;;;;;;;14.40;80.88;100657.21;89154;1262;80862;-60
2022/08/30 02:36:03;;;;;;;10.10;7.50;;;;;;;14.41;80.88;100661.52;89234;1263;80840;-61
2022/08/30 02:38:22;;;;;;;10.10;6.80;;;;;;;14.43;80.91;100661.56;89225;1262;97090;-61
2022/08/30 02:40:39;;;;;;;16.10;8.50;;;;;;;14.41;80.77;100666.55;89221;1261;88841;-60
2022/08/30 02:42:51;;;;;;;9.40;6.70;;;;;;;14.38;80.91;100668.55;89215;1263;94743;-60
2022/08/30 02:45:05;;;;;;;9.80;7.70;;;;;;;14.37;81.08;100670.84;89225;1263;80431;-61
2022/08/30 02:47:17;;;;;;;9.60;7.30;;;;;;;14.39;81.17;100671.73;89220;1264;82108;-60
2022/08/30 02:49:30;;;;;;;12.00;8.10;;;;;;;14.36;81.02;100669.05;89206;1263;99309;-59
2022/08/30 02:51:43;;;;;;;9.40;7.10;;;;;;;14.33;81.21;100671.30;89204;1263;86036;-61
2022/08/30 02:53:56;;;;;;;9.30;7.10;;;;;;;14.35;81.19;100677.48;89034;1264;92686;-61
2022/08/30 02:56:15;;;;;;;10.00;6.90;;;;;;;14.36;81.31;100675.90;89200;1263;80837;-60
2022/08/30 02:58:36;;;;;;;9.40;7.80;;;;;;;14.36;81.36;100675.23;89179;1263;81411;-61
2022/08/30 03:00:49;;;;;;;8.40;6.60;;;;;;;14.35;81.41;100673.22;89093;1263;98486;-60
2022/08/30 03:03:03;;;;;;;9.90;7.70;;;;;;;14.35;81.37;100673.34;89226;1262;87192;-61
2022/08/30 03:05:16;;;;;;;9.20;7.50;;;;;;;14.32;81.35;100675.89;89185;1262;94896;-62
2022/08/30 03:07:32;;;;;;;9.40;7.10;;;;;;;14.31;81.42;100678.67;89185;1263;79267;-61
2022/08/30 03:09:53;;;;;;;8.80;7.30;;;;;;;14.29;81.57;100676.90;89236;1263;82600;-60
2022/08/30 03:12:07;;;;;;;8.80;7.20;;;;;;;14.31;81.69;100679.49;89220;1262;97231;-59
2022/08/30 03:14:23;;;;;;;10.00;7.20;;;;;;;14.32;81.57;100679.05;89177;1263;87799;-61
2022/08/30 03:16:38;;;;;;;19.10;8.10;;;;;;;14.27;81.73;100680.36;89156;1263;94581;-61
2022/08/30 03:18:49;;;;;;;9.80;7.90;;;;;;;14.27;81.80;100682.01;89183;1262;80562;-61
2022/08/30 03:21:05;;;;;;;7.80;7.00;;;;;;;14.32;81.84;100683.37;89190;1263;80202;-60
2022/08/30 03:23:25;;;;;;;9.80;7.60;;;;;;;14.34;81.86;100684.60;89177;1263;97563;-61
2022/08/30 03:25:38;;;;;;;11.40;7.20;;;;;;;14.30;81.94;100685.44;89228;1264;87118;-60
2022/08/30 03:27:51;;;;;;;10.10;7.60;;;;;;;14.28;81.91;100684.80;89169;1262;93951;-61
2022/08/30 03:30:02;;;;;;;9.20;8.10;;;;;;;14.24;81.97;100684.92;89164;1264;80960;-59
2022/08/30 03:32:14;;;;;;;9.20;8.20;;;;;;;14.25;82.09;100686.15;89225;1264;82983;-59
2022/08/30 03:34:27;;;;;;;9.40;8.40;;;;;;;14.26;81.98;100683.77;89189;1263;99498;-60
2022/08/30 03:36:38;;;;;;;9.90;8.20;;;;;;;14.25;82.02;100680.90;89210;1264;88071;-60
2022/08/30 03:38:51;;;;;;;8.80;7.90;;;;;;;14.24;82.21;100685.55;89187;1263;93707;-59
2022/08/30 03:41:04;;;;;;;9.30;7.80;;;;;;;14.24;82.22;100689.48;89159;1264;80828;-60
2022/08/30 03:43:20;;;;;;;9.60;8.00;;;;;;;14.25;82.26;100687.17;89188;1263;81791;-59
2022/08/30 03:45:33;;;;;;;12.00;8.10;;;;;;;14.26;82.34;100690.86;89213;1263;99291;-59
2022/08/30 03:47:46;;;;;;;9.00;7.80;;;;;;;14.26;82.37;100687.55;89202;1262;87869;-60
2022/08/30 03:49:57;;;;;;;9.60;8.60;;;;;;;14.26;82.50;100685.05;89182;1264;94376;-60
2022/08/30 03:52:12;;;;;;;9.20;8.00;;;;;;;14.30;82.54;100685.55;89057;1263;80045;-61
2022/08/30 03:54:22;;;;;;;10.90;8.50;;;;;;;14.30;82.41;100684.85;89217;1263;79968;-62
2022/08/30 03:56:37;;;;;;;8.90;8.00;;;;;;;14.34;82.53;100683.30;89029;1264;99849;-61
2022/08/30 03:58:51;;;;;;;10.60;8.50;;;;;;;14.35;82.43;100682.30;89162;1263;86586;-61
2022/08/30 04:01:00;;;;;;;10.00;7.70;;;;;;;14.37;82.44;100687.07;89209;1263;93415;-62
2022/08/30 04:03:10;;;;;;;9.60;7.70;;;;;;;14.40;82.50;100693.52;89005;1266;83087;-61
2022/08/30 04:05:24;;;;;;;9.20;7.70;;;;;;;14.38;82.47;100693.93;89166;1263;81899;-60
2022/08/30 04:07:33;;;;;;;8.90;8.00;;;;;;;14.37;82.54;100693.88;89173;1263;98238;-61
2022/08/30 04:09:47;;;;;;;8.50;7.70;;;;;;;14.34;82.54;100694.55;89100;1263;87655;-59
2022/08/30 04:12:02;;;;;;;9.50;8.00;;;;;;;14.33;82.61;100693.00;89173;1263;95094;-60
2022/08/30 04:14:14;;;;;;;9.40;7.60;;;;;;;14.33;82.65;100694.05;89130;1263;79604;-61
2022/08/30 04:16:26;;;;;;;9.10;7.70;;;;;;;14.37;82.75;100694.44;89017;1264;80373;-61
2022/08/30 04:18:35;;;;;;;8.60;7.70;;;;;;;14.45;82.92;100693.18;89183;1263;99562;-58
2022/08/30 04:20:50;;;;;;;8.70;7.80;;;;;;;14.54;82.97;100693.33;89189;1262;89866;-59
2022/08/30 04:23:05;;;;;;;9.10;7.40;;;;;;;14.65;83.13;100692.29;89051;1263;94540;-60
2022/08/30 04:25:18;;;;;;;10.00;8.20;;;;;;;14.74;83.33;100697.46;89156;1263;80720;-59
2022/08/30 04:27:31;;;;;;;10.50;7.80;;;;;;;14.86;83.42;100702.37;89125;1262;81760;-59
2022/08/30 04:29:50;;;;;;;8.40;7.50;;;;;;;14.97;83.51;100700.32;89068;1264;99134;-61
2022/08/30 04:32:05;;;;;;;8.40;7.50;;;;;;;15.06;83.62;100700.94;89213;1262;88082;-61
2022/08/30 04:34:20;;;;;;;8.70;7.20;;;;;;;15.18;83.79;100703.89;89146;1261;94320;-61
2022/08/30 04:36:34;;;;;;;8.00;6.70;;;;;;;15.24;83.71;100706.86;88987;1266;81205;-60
2022/08/30 04:38:47;;;;;;;8.10;7.20;;;;;;;15.28;83.87;100707.17;89159;1264;81157;-59
2022/08/30 04:40:57;;;;;;;8.90;7.10;;;;;;;15.36;83.86;100707.20;89168;1262;99548;-59
2022/08/30 04:43:10;;;;;;;8.10;6.40;;;;;;;15.49;83.88;100709.70;89196;1262;86461;-60
2022/08/30 04:45:21;;;;;;;8.10;6.30;;;;;;;15.58;83.76;100714.42;89064;1264;92791;-61
2022/08/30 04:47:33;;;;;;;8.90;6.50;;;;;;;15.65;83.70;100720.83;89172;1264;80563;-60
2022/08/30 04:49:44;;;;;;;8.90;6.50;;;;;;;15.69;83.67;100723.95;89099;1263;81239;-60
2022/08/30 04:51:57;;;;;;;6.90;6.20;;;;;;;15.76;83.55;100725.71;89160;1263;98650;-60
2022/08/30 04:54:09;;;;;;;7.70;6.50;;;;;;;15.81;83.55;100731.86;89033;1263;87708;-60
2022/08/30 04:56:28;;;;;;;6.30;5.60;;;;;;;15.87;83.49;100731.23;89159;1264;94781;-59
2022/08/30 04:58:43;;;;;;;8.20;5.50;;;;;;;15.91;83.61;100732.16;89139;1263;81569;-60
2022/08/30 05:01:15;;;;;;;8.70;5.60;;;;;;;15.98;83.53;100730.13;89162;1263;82491;-60
2022/08/30 05:03:35;;;;;;;8.30;5.80;;;;;;;16.06;83.48;100729.78;89142;1264;96904;-60
2022/08/30 05:05:55;;;;;;;8.60;5.60;;;;;;;16.05;83.51;100727.77;89212;1263;86479;-60
2022/08/30 05:08:12;;;;;;;10.10;5.90;;;;;;;16.10;83.45;100730.73;89178;1263;93462;-60
2022/08/30 05:10:29;;;;;;;9.30;6.10;;;;;;;16.16;83.40;100729.70;89133;1262;82684;-60
2022/08/30 05:12:42;;;;;;;6.60;5.90;;;;;;;16.24;83.28;100729.24;89171;1263;82952;-59
2022/08/30 05:14:57;;;;;;;;;;;;;;;16.28;83.29;100729.13;89042;1264;98277;-59
2022/08/30 05:17:05;;;;;;;;;;;;;;;16.33;83.32;100727.72;89187;1263;86072;-59
2022/08/30 05:19:19;;;;;;;6.20;5.10;;;;;;;16.33;83.24;100727.89;89057;1263;94698;-59
2022/08/30 05:21:32;;;;;;;6.10;4.90;;;;;;;16.39;83.21;100729.20;89063;1264;80001;-61
2022/08/30 05:23:44;;;;;;;6.70;4.60;;;;;;;16.46;83.15;100730.15;89154;1264;81022;-60
2022/08/30 05:25:57;;;;;;;9.20;4.70;;;;;;;16.56;83.09;100735.95;89147;1264;97632;-60
2022/08/30 05:28:10;;;;;;;7.40;4.30;;;;;;;16.65;82.88;100736.02;89145;1263;85944;-59
2022/08/30 05:30:27;;;;;;;6.70;4.40;;;;;;;16.70;82.85;100737.27;89169;1263;92258;-60
2022/08/30 05:32:41;;;;;;;8.90;5.50;;;;;;;16.75;82.76;100734.55;89160;1262;80955;-60
2022/08/30 05:34:51;;;;;;;5.10;3.70;;;;;;;16.78;82.68;100733.40;89143;1264;80955;-59
2022/08/30 05:37:07;;;;;;;5.30;4.40;;;;;;;16.86;82.67;100734.71;89153;1264;99910;-59
2022/08/30 05:39:22;;;;;;;6.00;3.70;;;;;;;16.97;82.68;100732.67;89167;1263;86796;-59
2022/08/30 05:41:34;;;;;;;5.20;3.50;;;;;;;17.04;82.51;100732.35;89131;1264;94440;-60
2022/08/30 05:43:45;;;;;;;4.80;3.40;;;;;;;17.04;82.57;100730.14;89204;1263;80259;-61
2022/08/30 05:46:09;;;;;;;6.10;3.60;;;;;;;17.08;82.53;100728.83;89213;1263;80484;-61
2022/08/30 05:48:26;;;;;;;5.40;3.40;;;;;;;17.30;82.40;100731.11;89156;1263;98535;-61
2022/08/30 05:50:51;;;;;;;6.10;3.00;;;;;;;17.40;82.11;100735.41;89182;1263;86561;-60
2022/08/30 05:53:08;;;;;;;3.90;3.30;;;;;;;17.51;81.96;100734.84;89047;1264;95075;-60
2022/08/30 05:55:20;;;;;;;5.30;3.70;;;;;;;17.63;81.90;100735.08;89148;1262;81872;-61
2022/08/30 05:57:36;;;;;;;5.00;3.40;;;;;;;17.70;81.73;100734.54;89203;1261;82434;-60
2022/08/30 05:59:51;;;;;;;6.20;2.90;;;;;;;17.69;81.57;100736.14;89178;1264;96892;-60
2022/08/30 06:02:06;;;;;;;5.20;3.20;;;;;;;17.78;81.20;100735.70;89174;1262;86347;-60
2022/08/30 06:04:17;;;;;;;7.40;4.00;;;;;;;17.87;81.10;100737.83;89143;1263;93238;-59
2022/08/30 06:06:30;;;;;;;5.50;3.60;;;;;;;17.98;81.13;100733.14;89156;1262;81631;-60
2022/08/30 06:08:48;;;;;;;3.50;3.00;;;;;;;18.20;80.93;100741.15;89163;1263;81891;-61
2022/08/30 06:11:00;;;;;;;6.10;3.00;;;;;;;18.28;80.83;100738.96;89146;1264;99612;-62
2022/08/30 06:13:15;;;;;;;5.40;3.00;;;;;;;18.35;80.59;100734.45;89103;1264;87766;-63
2022/08/30 06:15:31;;;;;;;3.20;2.60;;;;;;;18.44;80.38;100738.33;89151;1264;94354;-63
2022/08/30 06:17:42;;;;;;;3.20;2.70;;;;;;;18.57;80.12;100738.63;89133;1263;78894;-63
2022/08/30 06:19:55;;;;;;;4.40;2.70;;;;;;;18.78;79.64;100739.35;89051;1264;82191;-61
2022/08/30 06:22:11;;;;;;;4.10;2.40;;;;;;;19.03;79.40;100743.16;89132;1263;99887;-62
2022/08/30 06:24:21;;;;;;;4.90;2.50;;;;;;;19.15;78.91;100746.08;89172;1263;87317;-61
2022/08/30 06:26:37;;;;;;;3.20;2.30;;;;;;;19.23;78.47;100747.70;89145;1261;93029;-61
2022/08/30 06:28:48;;;;;;;3.90;2.60;;;;;;;19.42;78.35;100750.59;89145;1264;79551;-61
2022/08/30 06:31:00;;;;;;;4.70;2.10;;;;;;;19.63;77.87;100749.33;89109;1264;80750;-62
2022/08/30 06:33:09;;;;;;;5.60;2.60;;;;;;;19.64;77.48;100754.45;89229;1263;97908;-62
2022/08/30 06:35:20;;;;;;;5.10;1.90;;;;;;;19.46;76.90;100754.09;88592;1263;817304;-61
2022/08/30 06:37:33;;;;;;;4.40;2.00;;;;;;;19.16;76.75;100758.07;89125;1264;94098;-61
2022/08/30 06:39:45;;;;;;;2.50;1.90;;;;;;;19.07;76.90;100757.16;89153;1263;77765;-61
2022/08/30 06:42:06;;;;;;;3.00;1.70;;;;;;;19.07;76.85;100756.36;89158;1264;81267;-60
2022/08/30 06:44:18;;;;;;;4.50;2.20;;;;;;;19.15;76.54;100754.42;89132;1264;97921;-63
2022/08/30 06:46:36;;;;;;;3.70;1.80;;;;;;;19.14;76.47;100755.80;89173;1260;88828;-63
2022/08/30 06:48:47;;;;;;;4.80;1.90;;;;;;;19.08;76.56;100756.86;89126;1262;92831;-61
2022/08/30 06:51:01;;;;;;;2.60;1.60;;;;;;;18.96;76.55;100757.81;89070;1264;82274;-61
2022/08/30 06:53:11;;;;;;;3.20;1.80;;;;;;;18.80;76.45;100762.06;89164;1262;81799;-62
2022/08/30 06:55:22;;;;;;;5.10;1.90;;;;;;;18.76;76.45;100763.94;89166;1264;99344;-61
2022/08/30 06:57:32;;;;;;;3.90;1.80;;;;;;;18.81;76.34;100762.70;89051;1264;86579;-60
2022/08/30 06:59:48;;;;;;;3.30;1.70;;;;;;;18.81;76.34;100765.80;89142;1263;93116;-62
2022/08/30 07:01:59;;;;;;;4.50;2.00;;;;;;;18.83;76.35;100769.27;89119;1254;79556;-63
2022/08/30 07:04:12;;;;;;;3.40;1.90;;;;;;;18.83;76.30;100775.74;89149;1260;83421;-61
2022/08/30 07:06:23;;;;;;;5.40;2.00;;;;;;;18.82;76.21;100773.73;89059;1264;98542;-61
2022/08/30 07:08:40;;;;;;;3.20;1.60;;;;;;;18.89;76.15;100780.26;89158;1262;88534;-61
2022/08/30 07:10:58;;;;;;;4.00;1.60;;;;;;;18.87;76.11;100782.98;89097;1261;93986;-62
2022/08/30 07:13:18;;;;;;;3.50;2.00;;;;;;;18.95;76.15;100784.41;89123;1262;80929;-61
2022/08/30 07:15:32;;;;;;;3.50;2.00;;;;;;;18.97;76.10;100789.77;89161;1263;81800;-60
2022/08/30 07:20:17;;;;;;;3.40;2.00;;;;;;;19.09;75.83;100791.73;89134;1263;88853;-62
2022/08/30 07:22:32;;;;;;;2.80;1.70;;;;;;;19.14;75.77;100794.59;89166;1262;94747;-61
2022/08/30 07:24:43;;;;;;;2.90;1.80;;;;;;;19.19;75.76;100791.00;89113;1263;78860;-63
2022/08/30 07:26:57;;;;;;;4.30;1.80;;;;;;;19.25;75.69;100791.42;89167;1256;82768;-63
2022/08/30 07:29:12;;;;;;;3.80;2.00;;;;;;;19.43;75.81;100792.27;89171;1263;97247;-63
2022/08/30 07:31:27;;;;;;;3.10;1.60;;;;;;;19.53;75.41;100799.40;89171;1262;87029;-63
2022/08/30 07:33:42;;;;;;;2.10;1.30;;;;;;;19.63;75.14;100802.21;89140;1261;92929;-62
2022/08/30 07:35:52;;;;;;;3.70;1.50;;;;;;;19.70;74.82;100805.06;89041;1264;82327;-61
2022/08/30 07:38:05;;;;;;;2.60;1.50;;;;;;;19.68;74.90;100804.31;89148;1263;80293;-62
2022/08/30 07:40:17;;;;;;;3.20;1.60;;;;;;;19.80;74.71;100800.59;89121;1263;99920;-61
2022/08/30 07:42:26;;;;;;;4.60;1.70;;;;;;;19.97;74.54;100806.56;89182;1263;88245;-60
2022/08/30 07:44:36;;;;;;;4.60;2.00;;;;;;;20.09;74.48;100805.67;89129;1264;96359;-62
2022/08/30 07:46:47;;;;;;;3.20;1.90;;;;;;;20.24;74.65;100802.85;89123;1263;80638;-60
2022/08/30 07:49:05;;;;;;;2.50;2.00;;;;;;;20.46;74.47;100805.93;89182;1262;81901;-61
2022/08/30 07:51:24;;;;;;;2.50;1.90;;;;;;;20.55;74.06;100809.02;89119;1262;98653;-64
2022/08/30 07:53:35;;;;;;;3.50;2.20;;;;;;;20.58;74.03;100810.95;89165;1262;87175;-62
2022/08/30 07:55:46;;;;;;;3.20;2.10;;;;;;;20.55;73.91;100809.96;89041;1265;97222;-61
2022/08/30 07:57:57;;;;;;;3.70;2.00;;;;;;;20.59;73.41;100811.41;89197;1264;78327;-62
2022/08/30 08:00:13;;;;;;;2.30;1.70;;;;;;;20.67;73.20;100816.89;89182;1263;82366;-61
2022/08/30 08:02:24;;;;;;;4.70;1.90;;;;;;;20.77;72.98;100811.20;89170;1262;99176;-59
2022/08/30 08:04:40;;;;;;;5.10;2.10;;;;;;;20.78;72.79;100816.49;89196;1262;88785;-62
2022/08/30 08:06:55;;;;;;;3.50;2.00;;;;;;;20.83;72.82;100811.05;89164;1262;92982;-62
2022/08/30 08:09:07;;;;;;;2.40;1.70;;;;;;;20.99;72.88;100816.06;89146;1262;79148;-62
2022/08/30 08:11:23;;;;;;;3.80;1.40;;;;;;;21.15;72.78;100814.41;89168;1262;80438;-62
2022/08/30 08:13:33;;;;;;;3.40;1.70;;;;;;;21.15;72.16;100818.15;89160;1263;96471;-62
2022/08/30 08:15:46;;;;;;;3.00;1.60;;;;;;;21.09;72.04;100816.21;89139;1262;87634;-61
2022/08/30 08:17:56;;;;;;;2.50;1.50;;;;;;;21.06;71.80;100818.02;89149;1263;95088;-62
2022/08/30 08:20:13;;;;;;;2.40;1.30;;;;;;;21.07;71.78;100815.56;89147;1261;80333;-62
2022/08/30 08:22:27;;;;;;;3.20;1.50;;;;;;;21.27;71.45;100819.88;89058;1263;80709;-63
2022/08/30 08:24:39;;;;;;;2.50;1.30;;;;;;;21.26;71.31;100817.83;89142;1263;97018;-62
2022/08/30 08:26:49;;;;;;;2.80;1.30;;;;;;;21.24;71.19;100821.27;89111;1263;87528;-60
2022/08/30 08:29:03;;;;;;;2.50;1.30;;;;;;;21.11;70.62;100823.67;89120;1263;95411;-62
2022/08/30 08:31:28;;;;;;;2.10;1.40;;;;;;;20.98;70.49;100828.73;89111;1263;79059;-60
2022/08/30 08:33:51;;;;;;;1.90;1.40;;;;;;;20.93;70.51;100828.37;89119;1264;80018;-63
2022/08/30 08:36:07;;;;;;;4.00;1.50;;;;;;;21.11;70.76;100823.77;89159;1262;98029;-63
2022/08/30 08:38:20;;;;;;;2.60;1.30;;;;;;;21.47;70.83;100825.55;89206;1263;87381;-62
2022/08/30 08:40:37;;;;;;;3.00;1.20;;;;;;;21.78;70.47;100824.23;89185;1263;95100;-61
2022/08/30 08:43:13;;;;;;;1.60;1.10;;;;;;;21.83;69.96;100823.46;89145;1262;79456;-62
2022/08/30 08:45:41;;;;;;;1.80;1.10;;;;;;;21.81;69.45;100825.70;89112;1263;81004;-61
2022/08/30 08:48:15;;;;;;;3.70;1.20;;;;;;;21.60;69.45;100830.06;89091;1263;98468;-60
2022/08/30 08:53:38;;;;;;;4.10;1.50;;;;;;;21.48;69.43;100831.39;89146;1263;93805;-60
2022/08/30 08:56:13;;;;;;;2.90;1.30;;;;;;;21.58;69.30;100835.79;89160;1262;79261;-60
2022/08/30 08:58:42;;;;;;;1.90;1.30;;;;;;;21.75;69.31;100831.99;89109;1263;81746;-60
2022/08/30 09:01:02;;;;;;;1.40;0.90;;;;;;;21.88;69.11;100832.58;89203;1262;99547;-60
2022/08/30 09:03:24;;;;;;;3.20;1.00;;;;;;;21.92;68.88;100829.80;89174;1262;86544;-63
2022/08/30 09:05:39;;;;;;;2.70;1.20;;;;;;;21.95;68.62;100833.58;89059;1263;94917;-62
2022/08/30 09:08:04;;;;;;;2.60;1.10;;;;;;;21.87;68.41;100834.21;89142;1262;79433;-61
2022/08/30 09:10:20;;;;;;;2.40;1.10;;;;;;;22.06;68.29;100836.98;89169;1262;80167;-62
2022/08/30 09:12:43;;;;;;;2.20;1.40;;;;;;;22.27;68.37;100832.73;89082;1263;96805;-62
2022/08/30 09:15:11;;;;;;;1.80;1.00;;;;;;;22.44;67.85;100836.23;89161;1262;87690;-62
2022/08/30 09:17:30;;;;;;;1.50;1.00;;;;;;;22.22;67.49;100837.05;89144;1262;93755;-63
2022/08/30 09:20:01;;;;;;;3.80;1.00;;;;;;;22.12;67.52;100837.95;89114;1264;78637;-61
2022/08/30 09:22:35;;;;;;;2.10;1.00;;;;;;;22.08;67.39;100838.61;89179;1263;81229;-61
2022/08/30 09:24:53;;;;;;;3.10;1.10;;;;;;;22.11;67.48;100834.41;89196;1254;97095;-61
2022/08/30 09:27:17;;;;;;;2.00;1.00;;;;;;;22.37;67.60;100834.08;89129;1263;87650;-60
2022/08/30 09:29:27;;;;;;;2.70;1.10;;;;;;;22.82;67.49;100833.13;89157;1261;92531;-61
2022/08/30 09:31:49;;;;;;;2.90;0.90;;;;;;;23.02;66.79;100835.90;89163;1262;79229;-62
2022/08/30 09:34:06;;;;;;;1.60;0.90;;;;;;;22.86;66.34;100834.76;89159;1263;81697;-61
2022/08/30 09:36:29;;;;;;;2.40;0.90;;;;;;;22.80;66.08;100835.25;89160;1263;98496;-61
2022/08/30 09:38:46;;;;;;;3.00;1.40;;;;;;;22.80;66.05;100836.40;89141;1262;88949;-62
2022/08/30 09:40:59;;;;;;;2.60;1.00;;;;;;;22.84;65.87;100837.20;89137;1263;93187;-61
2022/08/30 09:43:25;;;;;;;2.50;1.30;;;;;;;22.82;65.81;100835.31;89158;1263;78715;-63
2022/08/30 09:45:39;;;;;;;1.80;0.80;;;;;;;22.68;65.73;100840.57;89129;1262;81713;-63
2022/08/30 09:47:52;;;;;;;2.40;0.80;;;;;;;22.51;65.74;100839.45;89136;1262;99139;-62
2022/08/30 09:50:12;;;;;;;2.40;1.10;;;;;;;22.49;65.87;100843.55;89122;1263;89182;-62
2022/08/30 09:52:40;;;;;;;1.50;0.70;;;;;;;22.48;65.53;100842.04;89139;1262;94310;-62
2022/08/30 09:55:09;;;;;;;2.10;0.70;;;;;;;22.37;65.68;100841.47;89074;1264;79199;-63
2022/08/30 09:57:29;;;;;;;1.30;0.80;;;;;;;22.30;65.74;100844.75;89168;1263;81498;-63
2022/08/30 09:59:52;;;;;;;1.10;0.90;;;;;;;22.22;65.74;100845.56;89214;1262;98204;-60
2022/08/30 10:02:17;;;;;;;2.30;0.70;;;;;;;22.09;65.64;100844.39;89114;1263;87100;-60
2022/08/30 10:04:51;;;;;;;2.50;1.10;;;;;;;21.97;65.90;100845.27;89183;1263;94023;-62
2022/08/30 10:07:13;;;;;;;3.20;1.50;;;;;;;21.98;65.95;100843.64;89055;1264;79792;-62
2022/08/30 10:09:37;;;;;;;2.00;0.90;;;;;;;22.12;65.99;100842.23;89208;1263;83512;-61
2022/08/30 10:12:06;;;;;;;1.10;0.60;;;;;;;22.36;65.83;100840.87;89158;1262;98524;-61
2022/08/30 10:15:00;;;;;;;2.50;0.90;;;;;;;22.56;65.67;100836.80;89163;1262;89099;-63
2022/08/30 10:17:37;;;;;;;1.80;0.90;;;;;;;22.67;65.13;100845.40;89159;1263;94410;-63
2022/08/30 10:20:20;;;;;;;2.10;1.00;;;;;;;22.62;64.89;100842.77;89222;1261;78079;-62
2022/08/30 10:22:45;;;;;;;2.40;0.90;;;;;;;22.51;64.53;100848.14;89086;1264;82006;-62
2022/08/30 10:25:18;;;;;;;2.50;1.00;;;;;;;22.35;64.51;100853.45;89174;1262;98049;-61
2022/08/30 10:27:52;;;;;;;2.60;1.40;;;;;;;22.27;64.58;100857.64;89188;1262;87985;-64
2022/08/30 10:32:46;;;;;;;;;;;;;;;21.98;64.71;100856.45;89088;1263;79973;-63
2022/08/30 10:35:09;;;;;;;1.50;0.80;;;;;;;21.89;64.62;100858.69;89134;1263;83205;-63
2022/08/30 10:37:39;;;;;;;1.50;0.70;;;;;;;21.85;64.59;100856.80;89160;1262;98659;-62
2022/08/30 10:41:11;;;;;;;1.80;0.70;;;;;;;21.88;64.64;100860.17;89230;1254;86170;-61
2022/08/30 10:42:39;;;;;;;2.20;0.90;;;;;;;21.88;64.57;100856.79;89206;1263;92758;-61